Master — D5EU3 — position and weather

sailwx.info

Track history (hours):
 
Tides and Currents Weather Stations Pressure Air Temp Water Temp Dewpoint Dewpoint Depression Visibility Wind Speed Wind Dir Waves Ship Positions

Master

Last reported at 2018-Jun-24 18:23 UTC. Time now 2018-Jul-17 13:15 UTC.
Position N 01°21' E 103°18'.
Warning: this ship's position is 22 days out of date.

Length 229 m; draft 14.5 m.

Type: Cargo ship. MMSI: 636016168.

Date/timePositionNaut miles runAvg speedWind from/ knotsBaromVisibWave heightAir tempDewpointWater temp
2018-Jun-24 18:23N 01°21' E 103°18'511.5
2018-Jun-24 17:56N 01°18' E 103°22'511.1
2018-Jun-24 17:30N 01°14' E 103°26'610.8
2018-Jun-24 16:59N 01°13' E 103°31'510.1
2018-Jun-24 16:30N 01°12' E 103°36'5 9.3
2018-Jun-24 16:00N 01°11' E 103°40'5 9.5
2018-Jun-24 15:30N 01°08' E 103°45'5 9.4
2018-Jun-24 15:00N 01°11' E 103°49'510.0
2018-Jun-24 14:30N 01°13' E 103°53'5 9.7
2018-Jun-24 14:00N 01°15' E 103°57'4 6.9
2018-Jun-24 13:29N 01°17' E 104°01'1 1.1
2018-Jun-24 12:49N 01°17' E 104°00'0 0.2
2018-Jun-24 12:25N 01°17' E 104°00'0 0.1
2018-Jun-24 11:58N 01°17' E 104°00'0 0.0
2018-Jun-24 11:30N 01°17' E 104°00'0 0.0
2018-Jun-24 10:57N 01°17' E 104°00'0 0.1
2018-Jun-24 10:22N 01°17' E 104°00'0 0.0
2018-Jun-24 09:54N 01°17' E 104°00'0 0.1
2018-Jun-24 09:27N 01°17' E 104°00'0 0.0
2018-Jun-24 08:57N 01°17' E 104°00'0 0.0
2018-Jun-24 08:25N 01°17' E 104°00'0 0.2
2018-Jun-24 07:48N 01°17' E 104°00'0 0.2
2018-Jun-24 07:28N 01°17' E 104°00'0 0.1
2018-Jun-24 06:58N 01°17' E 104°00'0 0.1
2018-Jun-24 06:16N 01°17' E 104°00'0 0.0
2018-Jun-24 05:58N 01°17' E 104°00'0 0.0
2018-Jun-24 05:30N 01°17' E 104°00'0 0.1
2018-Jun-24 04:58N 01°17' E 104°01'0 0.0
2018-Jun-24 04:27N 01°17' E 104°01'0 0.0
2018-Jun-24 03:45N 01°17' E 104°01'0 0.0
2018-Jun-24 03:30N 01°17' E 104°01'0 0.1
2018-Jun-24 02:55N 01°17' E 104°00'1 2.2
2018-Jun-24 02:29N 01°17' E 103°60'1 2.7
2018-Jun-24 01:58N 01°16' E 104°01'2 4.8
2018-Jun-24 01:27N 01°16' E 104°03'3 5.7
2018-Jun-24 00:57N 01°17' E 104°06'3 6.2
2018-Jun-24 00:29N 01°17' E 104°09'4 8.4
2018-Jun-23 23:58N 01°17' E 104°13'511.1
2018-Jun-23 23:29N 01°18' E 104°18'510.8
2018-Jun-23 23:01N 01°21' E 104°23'510.6
2018-Jun-23 22:30N 01°25' E 104°27'  
Track history (hours):
 
Tides and Currents Weather Stations Pressure Air Temp Water Temp Dewpoint Dewpoint Depression Visibility Wind Speed Wind Dir Waves Ship Positions

Master

Last reported at 2018-Jun-24 18:23 UTC. Time now 2018-Jul-17 13:15 UTC.
Position N 01°21' E 103°18'.
Warning: this ship's position is 22 days out of date.

Length 229 m; draft 14.5 m.

Type: Cargo ship. MMSI: 636016168.

Date/timePositionNaut miles runAvg speedWind from/ knotsBaromVisibWave heightAir tempDewpointWater temp
2018-Jun-24 18:23N 01°21' E 103°18'511.5
2018-Jun-24 17:56N 01°18' E 103°22'511.1
2018-Jun-24 17:30N 01°14' E 103°26'610.8
2018-Jun-24 16:59N 01°13' E 103°31'510.1
2018-Jun-24 16:30N 01°12' E 103°36'5 9.3
2018-Jun-24 16:00N 01°11' E 103°40'5 9.5
2018-Jun-24 15:30N 01°08' E 103°45'5 9.4
2018-Jun-24 15:00N 01°11' E 103°49'510.0
2018-Jun-24 14:30N 01°13' E 103°53'5 9.7
2018-Jun-24 14:00N 01°15' E 103°57'4 6.9
2018-Jun-24 13:29N 01°17' E 104°01'1 1.1
2018-Jun-24 12:49N 01°17' E 104°00'0 0.2
2018-Jun-24 12:25N 01°17' E 104°00'0 0.1
2018-Jun-24 11:58N 01°17' E 104°00'0 0.0
2018-Jun-24 11:30N 01°17' E 104°00'0 0.0
2018-Jun-24 10:57N 01°17' E 104°00'0 0.1
2018-Jun-24 10:22N 01°17' E 104°00'0 0.0
2018-Jun-24 09:54N 01°17' E 104°00'0 0.1
2018-Jun-24 09:27N 01°17' E 104°00'0 0.0
2018-Jun-24 08:57N 01°17' E 104°00'0 0.0
2018-Jun-24 08:25N 01°17' E 104°00'0 0.2
2018-Jun-24 07:48N 01°17' E 104°00'0 0.2
2018-Jun-24 07:28N 01°17' E 104°00'0 0.1
2018-Jun-24 06:58N 01°17' E 104°00'0 0.1
2018-Jun-24 06:16N 01°17' E 104°00'0 0.0
2018-Jun-24 05:58N 01°17' E 104°00'0 0.0
2018-Jun-24 05:30N 01°17' E 104°00'0 0.1
2018-Jun-24 04:58N 01°17' E 104°01'0 0.0
2018-Jun-24 04:27N 01°17' E 104°01'0 0.0
2018-Jun-24 03:45N 01°17' E 104°01'0 0.0
2018-Jun-24 03:30N 01°17' E 104°01'0 0.1
2018-Jun-24 02:55N 01°17' E 104°00'1 2.2
2018-Jun-24 02:29N 01°17' E 103°60'1 2.7
2018-Jun-24 01:58N 01°16' E 104°01'2 4.8
2018-Jun-24 01:27N 01°16' E 104°03'3 5.7
2018-Jun-24 00:57N 01°17' E 104°06'3 6.2
2018-Jun-24 00:29N 01°17' E 104°09'4 8.4
2018-Jun-23 23:58N 01°17' E 104°13'511.1
2018-Jun-23 23:29N 01°18' E 104°18'510.8
2018-Jun-23 23:01N 01°21' E 104°23'510.6
2018-Jun-23 22:30N 01°25' E 104°27'  

Dump ship's entire track history